sensor_id;sensor_type;location;lat;lon;timestamp;temperature;humidity
51733;DHT22;39139;53.144;6.244;2023-04-06T00:01:31;2.50;99.90
51733;DHT22;39139;53.144;6.244;2023-04-06T00:03:57;2.50;99.90
51733;DHT22;39139;53.144;6.244;2023-04-06T00:06:23;2.50;99.90
51733;DHT22;39139;53.144;6.244;2023-04-06T00:08:48;2.40;99.90
51733;DHT22;39139;53.144;6.244;2023-04-06T00:11:14;2.40;99.90
51733;DHT22;39139;53.144;6.244;2023-04-06T00:13:42;2.40;99.90
51733;DHT22;39139;53.144;6.244;2023-04-06T00:16:07;2.40;99.90
51733;DHT22;39139;53.144;6.244;2023-04-06T00:18:33;2.40;99.90
51733;DHT22;39139;53.144;6.244;2023-04-06T00:20:58;2.30;99.90
51733;DHT22;39139;53.144;6.244;2023-04-06T00:23:24;2.30;99.90
51733;DHT22;39139;53.144;6.244;2023-04-06T00:25:50;2.30;99.90
51733;DHT22;39139;53.144;6.244;2023-04-06T00:28:15;2.30;99.90
51733;DHT22;39139;53.144;6.244;2023-04-06T00:30:41;2.20;99.90
51733;DHT22;39139;53.144;6.244;2023-04-06T00:33:07;2.20;99.90
51733;DHT22;39139;53.144;6.244;2023-04-06T00:35:32;2.20;99.90
51733;DHT22;39139;53.144;6.244;2023-04-06T00:37:58;2.10;99.90
51733;DHT22;39139;53.144;6.244;2023-04-06T00:40:24;2.10;99.90
51733;DHT22;39139;53.144;6.244;2023-04-06T00:42:50;2.10;99.90
51733;DHT22;39139;53.144;6.244;2023-04-06T00:45:15;2.10;99.90
51733;DHT22;39139;53.144;6.244;2023-04-06T00:47:41;2.10;99.90
51733;DHT22;39139;53.144;6.244;2023-04-06T00:50:07;2.10;99.90
51733;DHT22;39139;53.144;6.244;2023-04-06T00:52:34;2.10;99.90
51733;DHT22;39139;53.144;6.244;2023-04-06T00:55:01;2.10;99.90
51733;DHT22;39139;53.144;6.244;2023-04-06T00:57:26;2.10;99.90
51733;DHT22;39139;53.144;6.244;2023-04-06T00:59:53;2.10;99.90
51733;DHT22;39139;53.144;6.244;2023-04-06T01:02:18;2.10;99.90
51733;DHT22;39139;53.144;6.244;2023-04-06T01:04:44;2.10;99.90
51733;DHT22;39139;53.144;6.244;2023-04-06T01:07:10;2.00;99.90
51733;DHT22;39139;53.144;6.244;2023-04-06T01:09:36;2.00;99.90
51733;DHT22;39139;53.144;6.244;2023-04-06T01:12:02;2.00;99.90
51733;DHT22;39139;53.144;6.244;2023-04-06T01:14:28;2.00;99.90
51733;DHT22;39139;53.144;6.244;2023-04-06T01:16:57;2.00;99.90
51733;DHT22;39139;53.144;6.244;2023-04-06T01:19:22;2.00;99.90
51733;DHT22;39139;53.144;6.244;2023-04-06T01:21:49;1.90;99.90
51733;DHT22;39139;53.144;6.244;2023-04-06T01:24:16;1.80;99.90
51733;DHT22;39139;53.144;6.244;2023-04-06T01:26:43;1.90;99.90
51733;DHT22;39139;53.144;6.244;2023-04-06T01:29:09;1.90;99.90
51733;DHT22;39139;53.144;6.244;2023-04-06T01:31:35;1.80;99.90
51733;DHT22;39139;53.144;6.244;2023-04-06T01:34:00;1.80;99.90
51733;DHT22;39139;53.144;6.244;2023-04-06T01:36:26;1.80;99.90
51733;DHT22;39139;53.144;6.244;2023-04-06T01:38:51;1.70;99.90
51733;DHT22;39139;53.144;6.244;2023-04-06T01:41:17;1.70;99.90
51733;DHT22;39139;53.144;6.244;2023-04-06T01:43:44;1.60;99.90
51733;DHT22;39139;53.144;6.244;2023-04-06T01:46:10;1.60;99.90
51733;DHT22;39139;53.144;6.244;2023-04-06T01:48:36;1.60;99.90
51733;DHT22;39139;53.144;6.244;2023-04-06T01:51:01;1.60;99.90
51733;DHT22;39139;53.144;6.244;2023-04-06T01:53:27;1.60;99.90
51733;DHT22;39139;53.144;6.244;2023-04-06T01:55:53;1.60;99.90
51733;DHT22;39139;53.144;6.244;2023-04-06T01:58:18;1.60;99.90
51733;DHT22;39139;53.144;6.244;2023-04-06T02:00:44;1.60;99.90
51733;DHT22;39139;53.144;6.244;2023-04-06T02:03:09;1.60;99.90
51733;DHT22;39139;53.144;6.244;2023-04-06T02:05:35;1.60;99.90
51733;DHT22;39139;53.144;6.244;2023-04-06T02:08:04;1.60;99.90
51733;DHT22;39139;53.144;6.244;2023-04-06T02:10:31;1.60;99.90
51733;DHT22;39139;53.144;6.244;2023-04-06T02:12:56;1.60;99.90
51733;DHT22;39139;53.144;6.244;2023-04-06T02:15:22;1.60;99.90
51733;DHT22;39139;53.144;6.244;2023-04-06T02:17:47;1.60;99.90
51733;DHT22;39139;53.144;6.244;2023-04-06T02:20:13;1.50;99.90
51733;DHT22;39139;53.144;6.244;2023-04-06T02:22:39;1.50;99.90
51733;DHT22;39139;53.144;6.244;2023-04-06T02:25:05;1.50;99.90
51733;DHT22;39139;53.144;6.244;2023-04-06T02:27:31;1.50;99.90
51733;DHT22;39139;53.144;6.244;2023-04-06T02:29:57;1.50;99.90
51733;DHT22;39139;53.144;6.244;2023-04-06T02:32:23;1.50;99.90
51733;DHT22;39139;53.144;6.244;2023-04-06T02:34:48;1.40;99.90
51733;DHT22;39139;53.144;6.244;2023-04-06T02:37:14;1.30;99.90
51733;DHT22;39139;53.144;6.244;2023-04-06T02:39:40;1.30;99.90
51733;DHT22;39139;53.144;6.244;2023-04-06T02:42:06;1.30;99.90
51733;DHT22;39139;53.144;6.244;2023-04-06T02:44:31;1.30;99.90
51733;DHT22;39139;53.144;6.244;2023-04-06T02:46:57;1.30;99.90
51733;DHT22;39139;53.144;6.244;2023-04-06T02:49:23;1.30;99.90
51733;DHT22;39139;53.144;6.244;2023-04-06T02:51:48;1.30;99.90
51733;DHT22;39139;53.144;6.244;2023-04-06T02:54:14;1.20;99.90
51733;DHT22;39139;53.144;6.244;2023-04-06T02:56:39;1.20;99.90
51733;DHT22;39139;53.144;6.244;2023-04-06T02:59:05;1.30;99.90
51733;DHT22;39139;53.144;6.244;2023-04-06T03:01:31;1.30;99.90
51733;DHT22;39139;53.144;6.244;2023-04-06T03:03:56;1.30;99.90
51733;DHT22;39139;53.144;6.244;2023-04-06T03:06:22;1.30;99.90
51733;DHT22;39139;53.144;6.244;2023-04-06T03:08:47;1.30;99.90
51733;DHT22;39139;53.144;6.244;2023-04-06T03:11:13;1.30;99.90
51733;DHT22;39139;53.144;6.244;2023-04-06T03:13:39;1.30;99.90
51733;DHT22;39139;53.144;6.244;2023-04-06T03:16:05;1.20;99.90
51733;DHT22;39139;53.144;6.244;2023-04-06T03:18:32;1.20;99.90
51733;DHT22;39139;53.144;6.244;2023-04-06T03:20:58;1.40;99.90
51733;DHT22;39139;53.144;6.244;2023-04-06T03:23:25;1.10;99.90
51733;DHT22;39139;53.144;6.244;2023-04-06T03:25:50;1.10;99.90
51733;DHT22;39139;53.144;6.244;2023-04-06T03:28:16;1.10;99.90
51733;DHT22;39139;53.144;6.244;2023-04-06T03:30:41;1.10;99.90
51733;DHT22;39139;53.144;6.244;2023-04-06T03:33:07;1.10;99.90
51733;DHT22;39139;53.144;6.244;2023-04-06T03:35:33;1.10;99.90
51733;DHT22;39139;53.144;6.244;2023-04-06T03:37:58;1.10;99.90
51733;DHT22;39139;53.144;6.244;2023-04-06T03:40:24;1.10;99.90
51733;DHT22;39139;53.144;6.244;2023-04-06T03:42:50;1.10;99.90
51733;DHT22;39139;53.144;6.244;2023-04-06T03:45:16;1.10;99.90
51733;DHT22;39139;53.144;6.244;2023-04-06T03:47:41;1.00;99.90
51733;DHT22;39139;53.144;6.244;2023-04-06T03:50:08;1.00;99.90
51733;DHT22;39139;53.144;6.244;2023-04-06T03:52:35;1.00;99.90
51733;DHT22;39139;53.144;6.244;2023-04-06T03:55:01;1.00;99.90
51733;DHT22;39139;53.144;6.244;2023-04-06T03:57:26;1.00;99.90
51733;DHT22;39139;53.144;6.244;2023-04-06T03:59:52;0.90;99.90
51733;DHT22;39139;53.144;6.244;2023-04-06T04:02:18;0.90;99.90
51733;DHT22;39139;53.144;6.244;2023-04-06T04:04:43;0.90;99.90
51733;DHT22;39139;53.144;6.244;2023-04-06T04:07:09;0.90;99.90
51733;DHT22;39139;53.144;6.244;2023-04-06T04:09:34;0.90;99.90
51733;DHT22;39139;53.144;6.244;2023-04-06T04:12:00;0.90;99.90
51733;DHT22;39139;53.144;6.244;2023-04-06T04:14:26;0.90;99.90
51733;DHT22;39139;53.144;6.244;2023-04-06T04:16:51;0.90;99.90
51733;DHT22;39139;53.144;6.244;2023-04-06T04:19:17;0.80;99.90
51733;DHT22;39139;53.144;6.244;2023-04-06T04:21:45;0.90;99.90
51733;DHT22;39139;53.144;6.244;2023-04-06T04:24:11;0.90;99.90
51733;DHT22;39139;53.144;6.244;2023-04-06T04:26:37;0.90;99.90
51733;DHT22;39139;53.144;6.244;2023-04-06T04:29:03;0.80;99.90
51733;DHT22;39139;53.144;6.244;2023-04-06T04:31:29;0.80;99.90
51733;DHT22;39139;53.144;6.244;2023-04-06T04:33:55;0.80;99.90
51733;DHT22;39139;53.144;6.244;2023-04-06T04:36:21;0.80;99.90
51733;DHT22;39139;53.144;6.244;2023-04-06T04:38:47;0.80;99.90
51733;DHT22;39139;53.144;6.244;2023-04-06T04:41:12;0.80;99.90
51733;DHT22;39139;53.144;6.244;2023-04-06T04:43:38;0.70;99.90
51733;DHT22;39139;53.144;6.244;2023-04-06T04:46:04;0.70;99.90
51733;DHT22;39139;53.144;6.244;2023-04-06T04:48:30;0.70;99.90
51733;DHT22;39139;53.144;6.244;2023-04-06T04:50:55;0.70;99.90
51733;DHT22;39139;53.144;6.244;2023-04-06T04:53:21;0.70;99.90
51733;DHT22;39139;53.144;6.244;2023-04-06T04:55:47;0.70;99.90
51733;DHT22;39139;53.144;6.244;2023-04-06T04:58:12;0.70;99.90
51733;DHT22;39139;53.144;6.244;2023-04-06T05:00:42;0.60;99.90
51733;DHT22;39139;53.144;6.244;2023-04-06T05:03:11;0.60;99.90
51733;DHT22;39139;53.144;6.244;2023-04-06T05:05:39;0.60;99.90
51733;DHT22;39139;53.144;6.244;2023-04-06T05:08:04;0.60;99.90
51733;DHT22;39139;53.144;6.244;2023-04-06T05:10:30;0.70;99.90
51733;DHT22;39139;53.144;6.244;2023-04-06T05:12:56;0.70;99.90
51733;DHT22;39139;53.144;6.244;2023-04-06T05:15:21;0.70;99.90
51733;DHT22;39139;53.144;6.244;2023-04-06T05:17:47;0.70;99.90
51733;DHT22;39139;53.144;6.244;2023-04-06T05:20:13;0.80;99.90
51733;DHT22;39139;53.144;6.244;2023-04-06T05:22:38;0.80;99.90
51733;DHT22;39139;53.144;6.244;2023-04-06T05:25:04;0.80;99.90
51733;DHT22;39139;53.144;6.244;2023-04-06T05:27:30;0.80;99.90
51733;DHT22;39139;53.144;6.244;2023-04-06T05:29:55;0.80;99.90
51733;DHT22;39139;53.144;6.244;2023-04-06T05:32:21;0.90;99.90
51733;DHT22;39139;53.144;6.244;2023-04-06T05:34:49;0.90;99.90
51733;DHT22;39139;53.144;6.244;2023-04-06T05:37:15;0.90;99.90
51733;DHT22;39139;53.144;6.244;2023-04-06T05:39:41;1.00;99.90
51733;DHT22;39139;53.144;6.244;2023-04-06T05:42:07;1.20;99.90
51733;DHT22;39139;53.144;6.244;2023-04-06T05:44:32;1.40;99.90
51733;DHT22;39139;53.144;6.244;2023-04-06T05:46:58;1.50;99.90
51733;DHT22;39139;53.144;6.244;2023-04-06T05:49:24;1.60;99.90
51733;DHT22;39139;53.144;6.244;2023-04-06T05:51:49;1.70;99.90
51733;DHT22;39139;53.144;6.244;2023-04-06T05:54:15;1.80;99.90
51733;DHT22;39139;53.144;6.244;2023-04-06T05:56:40;2.00;99.90
51733;DHT22;39139;53.144;6.244;2023-04-06T05:59:06;2.20;99.90
51733;DHT22;39139;53.144;6.244;2023-04-06T06:01:33;2.50;99.90
51733;DHT22;39139;53.144;6.244;2023-04-06T06:04:03;3.00;99.90
51733;DHT22;39139;53.144;6.244;2023-04-06T06:06:29;3.00;99.90
51733;DHT22;39139;53.144;6.244;2023-04-06T06:08:57;3.20;99.90
51733;DHT22;39139;53.144;6.244;2023-04-06T06:11:27;3.30;99.90
51733;DHT22;39139;53.144;6.244;2023-04-06T06:13:53;3.20;99.90
51733;DHT22;39139;53.144;6.244;2023-04-06T06:16:19;3.40;99.90
51733;DHT22;39139;53.144;6.244;2023-04-06T06:18:45;3.40;99.90
51733;DHT22;39139;53.144;6.244;2023-04-06T06:21:10;3.60;99.90
51733;DHT22;39139;53.144;6.244;2023-04-06T06:23:39;3.70;99.90
51733;DHT22;39139;53.144;6.244;2023-04-06T06:26:04;4.00;99.90
51733;DHT22;39139;53.144;6.244;2023-04-06T06:28:31;4.20;99.90
51733;DHT22;39139;53.144;6.244;2023-04-06T06:30:56;4.30;99.90
51733;DHT22;39139;53.144;6.244;2023-04-06T06:33:22;4.40;99.90
51733;DHT22;39139;53.144;6.244;2023-04-06T06:35:48;4.80;99.90
51733;DHT22;39139;53.144;6.244;2023-04-06T06:38:14;4.90;99.90
51733;DHT22;39139;53.144;6.244;2023-04-06T06:40:40;4.90;99.90
51733;DHT22;39139;53.144;6.244;2023-04-06T06:43:06;5.10;99.90
51733;DHT22;39139;53.144;6.244;2023-04-06T06:45:32;5.10;99.90
51733;DHT22;39139;53.144;6.244;2023-04-06T06:47:58;5.30;99.90
51733;DHT22;39139;53.144;6.244;2023-04-06T06:50:24;5.70;99.90
51733;DHT22;39139;53.144;6.244;2023-04-06T06:52:49;5.90;99.90
51733;DHT22;39139;53.144;6.244;2023-04-06T06:55:15;6.30;99.90
51733;DHT22;39139;53.144;6.244;2023-04-06T06:57:41;6.50;99.90
51733;DHT22;39139;53.144;6.244;2023-04-06T07:00:08;6.60;99.90
51733;DHT22;39139;53.144;6.244;2023-04-06T07:02:35;6.70;99.90
51733;DHT22;39139;53.144;6.244;2023-04-06T07:05:03;6.50;99.90
51733;DHT22;39139;53.144;6.244;2023-04-06T07:07:31;6.30;99.90
51733;DHT22;39139;53.144;6.244;2023-04-06T07:09:57;6.20;99.90
51733;DHT22;39139;53.144;6.244;2023-04-06T07:12:23;6.00;99.90
51733;DHT22;39139;53.144;6.244;2023-04-06T07:14:51;6.00;99.90
51733;DHT22;39139;53.144;6.244;2023-04-06T07:17:17;5.80;99.90
51733;DHT22;39139;53.144;6.244;2023-04-06T07:19:43;5.90;99.90
51733;DHT22;39139;53.144;6.244;2023-04-06T07:22:08;5.90;99.90
51733;DHT22;39139;53.144;6.244;2023-04-06T07:24:34;6.00;99.90
51733;DHT22;39139;53.144;6.244;2023-04-06T07:27:00;6.10;99.90
51733;DHT22;39139;53.144;6.244;2023-04-06T07:29:26;6.30;99.90
51733;DHT22;39139;53.144;6.244;2023-04-06T07:31:52;6.50;99.90
51733;DHT22;39139;53.144;6.244;2023-04-06T07:34:18;6.60;99.90
51733;DHT22;39139;53.144;6.244;2023-04-06T07:36:44;6.80;99.90
51733;DHT22;39139;53.144;6.244;2023-04-06T07:39:10;7.10;99.90
51733;DHT22;39139;53.144;6.244;2023-04-06T07:41:36;7.60;99.90
51733;DHT22;39139;53.144;6.244;2023-04-06T07:44:01;8.00;99.90
51733;DHT22;39139;53.144;6.244;2023-04-06T07:46:27;8.90;99.90
51733;DHT22;39139;53.144;6.244;2023-04-06T07:48:53;8.80;99.90
51733;DHT22;39139;53.144;6.244;2023-04-06T07:51:18;9.20;99.90
51733;DHT22;39139;53.144;6.244;2023-04-06T07:53:44;9.40;99.90
51733;DHT22;39139;53.144;6.244;2023-04-06T07:56:10;10.00;99.90
51733;DHT22;39139;53.144;6.244;2023-04-06T07:58:35;10.20;99.90
51733;DHT22;39139;53.144;6.244;2023-04-06T08:01:01;10.10;99.90
51733;DHT22;39139;53.144;6.244;2023-04-06T08:03:27;10.60;99.90
51733;DHT22;39139;53.144;6.244;2023-04-06T08:05:53;11.10;99.60
51733;DHT22;39139;53.144;6.244;2023-04-06T08:08:19;10.90;99.70
51733;DHT22;39139;53.144;6.244;2023-04-06T08:10:45;11.00;99.90
51733;DHT22;39139;53.144;6.244;2023-04-06T08:13:10;11.50;99.60
51733;DHT22;39139;53.144;6.244;2023-04-06T08:15:36;11.80;99.70
51733;DHT22;39139;53.144;6.244;2023-04-06T08:18:01;12.30;98.40
51733;DHT22;39139;53.144;6.244;2023-04-06T08:20:27;12.50;98.40
51733;DHT22;39139;53.144;6.244;2023-04-06T08:22:52;12.70;97.70
51733;DHT22;39139;53.144;6.244;2023-04-06T08:25:18;12.90;98.00
51733;DHT22;39139;53.144;6.244;2023-04-06T08:27:44;13.40;97.70
51733;DHT22;39139;53.144;6.244;2023-04-06T08:30:12;13.40;96.70
51733;DHT22;39139;53.144;6.244;2023-04-06T08:32:40;13.30;95.80
51733;DHT22;39139;53.144;6.244;2023-04-06T08:35:06;12.90;96.60
51733;DHT22;39139;53.144;6.244;2023-04-06T08:37:33;12.50;96.40
51733;DHT22;39139;53.144;6.244;2023-04-06T08:39:58;12.00;97.00
51733;DHT22;39139;53.144;6.244;2023-04-06T08:42:26;11.90;96.30
51733;DHT22;39139;53.144;6.244;2023-04-06T08:44:53;11.50;96.50
51733;DHT22;39139;53.144;6.244;2023-04-06T08:47:20;11.30;96.60
51733;DHT22;39139;53.144;6.244;2023-04-06T08:49:46;11.00;96.90
51733;DHT22;39139;53.144;6.244;2023-04-06T08:52:12;10.50;97.00
51733;DHT22;39139;53.144;6.244;2023-04-06T08:54:38;10.60;97.70
51733;DHT22;39139;53.144;6.244;2023-04-06T08:57:04;10.60;98.10
51733;DHT22;39139;53.144;6.244;2023-04-06T08:59:31;10.80;98.10
51733;DHT22;39139;53.144;6.244;2023-04-06T09:01:57;10.80;97.80
51733;DHT22;39139;53.144;6.244;2023-04-06T09:04:24;11.10;97.30
51733;DHT22;39139;53.144;6.244;2023-04-06T09:06:51;11.10;97.50
51733;DHT22;39139;53.144;6.244;2023-04-06T09:09:17;11.50;98.00
51733;DHT22;39139;53.144;6.244;2023-04-06T09:11:48;11.80;97.00
51733;DHT22;39139;53.144;6.244;2023-04-06T09:14:14;12.00;96.90
51733;DHT22;39139;53.144;6.244;2023-04-06T09:16:42;11.80;96.40
51733;DHT22;39139;53.144;6.244;2023-04-06T09:19:09;11.60;97.00
51733;DHT22;39139;53.144;6.244;2023-04-06T09:21:35;11.60;97.40
51733;DHT22;39139;53.144;6.244;2023-04-06T09:24:03;11.70;96.90
51733;DHT22;39139;53.144;6.244;2023-04-06T09:26:29;11.80;97.20
51733;DHT22;39139;53.144;6.244;2023-04-06T09:28:57;12.00;97.50
51733;DHT22;39139;53.144;6.244;2023-04-06T09:31:32;12.40;96.90
51733;DHT22;39139;53.144;6.244;2023-04-06T09:33:59;12.50;96.30
51733;DHT22;39139;53.144;6.244;2023-04-06T09:36:34;12.80;96.30
51733;DHT22;39139;53.144;6.244;2023-04-06T09:39:04;12.80;97.50
51733;DHT22;39139;53.144;6.244;2023-04-06T09:41:31;12.80;95.70
51733;DHT22;39139;53.144;6.244;2023-04-06T09:44:08;12.60;96.00
51733;DHT22;39139;53.144;6.244;2023-04-06T09:46:44;12.50;98.20
51733;DHT22;39139;53.144;6.244;2023-04-06T09:49:12;12.60;99.30
51733;DHT22;39139;53.144;6.244;2023-04-06T09:51:54;12.90;97.50
51733;DHT22;39139;53.144;6.244;2023-04-06T09:54:22;12.80;95.80
51733;DHT22;39139;53.144;6.244;2023-04-06T09:57:24;12.80;95.50
51733;DHT22;39139;53.144;6.244;2023-04-06T10:00:06;12.80;95.40
51733;DHT22;39139;53.144;6.244;2023-04-06T10:08:09;12.80;95.80
51733;DHT22;39139;53.144;6.244;2023-04-06T10:10:35;12.70;96.40
51733;DHT22;39139;53.144;6.244;2023-04-06T10:13:02;12.90;96.60
51733;DHT22;39139;53.144;6.244;2023-04-06T10:15:29;13.00;96.00
51733;DHT22;39139;53.144;6.244;2023-04-06T10:17:56;13.20;96.00
51733;DHT22;39139;53.144;6.244;2023-04-06T10:20:38;13.20;95.80
51733;DHT22;39139;53.144;6.244;2023-04-06T10:23:19;13.30;96.80
51733;DHT22;39139;53.144;6.244;2023-04-06T10:25:53;13.40;95.40
51733;DHT22;39139;53.144;6.244;2023-04-06T10:28:20;13.40;95.60
51733;DHT22;39139;53.144;6.244;2023-04-06T10:30:46;13.50;95.40
51733;DHT22;39139;53.144;6.244;2023-04-06T10:33:17;13.40;95.20
51733;DHT22;39139;53.144;6.244;2023-04-06T10:35:43;13.50;95.50
51733;DHT22;39139;53.144;6.244;2023-04-06T10:38:09;13.70;96.40
51733;DHT22;39139;53.144;6.244;2023-04-06T10:40:39;13.50;96.70
51733;DHT22;39139;53.144;6.244;2023-04-06T10:43:12;13.30;96.00
51733;DHT22;39139;53.144;6.244;2023-04-06T10:45:39;13.50;95.90
51733;DHT22;39139;53.144;6.244;2023-04-06T10:48:18;13.50;95.20
51733;DHT22;39139;53.144;6.244;2023-04-06T10:50:46;13.30;95.70
51733;DHT22;39139;53.144;6.244;2023-04-06T10:53:20;13.10;96.20
51733;DHT22;39139;53.144;6.244;2023-04-06T10:55:46;13.30;96.10
51733;DHT22;39139;53.144;6.244;2023-04-06T10:58:12;13.30;95.80
51733;DHT22;39139;53.144;6.244;2023-04-06T11:00:45;13.40;96.20
51733;DHT22;39139;53.144;6.244;2023-04-06T11:03:10;13.40;95.00
51733;DHT22;39139;53.144;6.244;2023-04-06T11:05:36;13.20;95.60
51733;DHT22;39139;53.144;6.244;2023-04-06T11:08:02;13.30;96.40
51733;DHT22;39139;53.144;6.244;2023-04-06T11:10:27;13.50;95.60
51733;DHT22;39139;53.144;6.244;2023-04-06T11:12:55;13.00;95.60
51733;DHT22;39139;53.144;6.244;2023-04-06T11:15:21;13.00;95.70
51733;DHT22;39139;53.144;6.244;2023-04-06T11:17:47;13.10;95.70
51733;DHT22;39139;53.144;6.244;2023-04-06T11:20:14;13.00;95.50
51733;DHT22;39139;53.144;6.244;2023-04-06T11:22:50;13.00;95.90
51733;DHT22;39139;53.144;6.244;2023-04-06T11:25:17;13.20;95.40
51733;DHT22;39139;53.144;6.244;2023-04-06T11:27:43;13.00;95.70
51733;DHT22;39139;53.144;6.244;2023-04-06T11:30:09;13.10;95.70
51733;DHT22;39139;53.144;6.244;2023-04-06T11:32:42;13.10;96.10
51733;DHT22;39139;53.144;6.244;2023-04-06T11:35:22;13.10;95.30
51733;DHT22;39139;53.144;6.244;2023-04-06T11:37:51;13.20;95.60
51733;DHT22;39139;53.144;6.244;2023-04-06T11:40:23;13.20;95.40
51733;DHT22;39139;53.144;6.244;2023-04-06T11:42:54;13.20;95.10
51733;DHT22;39139;53.144;6.244;2023-04-06T11:45:20;13.20;95.20
51733;DHT22;39139;53.144;6.244;2023-04-06T11:47:59;13.20;95.40
51733;DHT22;39139;53.144;6.244;2023-04-06T11:50:25;13.30;95.70
51733;DHT22;39139;53.144;6.244;2023-04-06T11:53:01;13.30;95.90
51733;DHT22;39139;53.144;6.244;2023-04-06T11:55:28;13.70;95.60
51733;DHT22;39139;53.144;6.244;2023-04-06T11:57:53;13.40;95.60
51733;DHT22;39139;53.144;6.244;2023-04-06T12:00:20;13.50;95.40
51733;DHT22;39139;53.144;6.244;2023-04-06T12:02:47;13.40;94.60
51733;DHT22;39139;53.144;6.244;2023-04-06T12:05:14;13.40;94.50
51733;DHT22;39139;53.144;6.244;2023-04-06T12:07:39;13.50;94.70
51733;DHT22;39139;53.144;6.244;2023-04-06T12:10:05;13.30;95.90
51733;DHT22;39139;53.144;6.244;2023-04-06T12:12:31;13.40;96.10
51733;DHT22;39139;53.144;6.244;2023-04-06T12:14:57;13.50;95.90
51733;DHT22;39139;53.144;6.244;2023-04-06T12:17:24;13.20;95.60
51733;DHT22;39139;53.144;6.244;2023-04-06T12:19:50;13.30;95.40
51733;DHT22;39139;53.144;6.244;2023-04-06T12:22:17;13.30;95.40
51733;DHT22;39139;53.144;6.244;2023-04-06T12:24:43;13.30;96.10
51733;DHT22;39139;53.144;6.244;2023-04-06T12:27:09;13.20;95.80
51733;DHT22;39139;53.144;6.244;2023-04-06T12:29:39;13.10;95.50
51733;DHT22;39139;53.144;6.244;2023-04-06T12:32:05;13.20;95.10
51733;DHT22;39139;53.144;6.244;2023-04-06T12:34:31;13.00;95.50
51733;DHT22;39139;53.144;6.244;2023-04-06T12:36:57;13.00;96.30
51733;DHT22;39139;53.144;6.244;2023-04-06T12:39:23;13.00;96.50
51733;DHT22;39139;53.144;6.244;2023-04-06T12:41:49;13.10;96.30
51733;DHT22;39139;53.144;6.244;2023-04-06T12:44:14;13.60;96.80
51733;DHT22;39139;53.144;6.244;2023-04-06T12:46:40;13.30;96.70
51733;DHT22;39139;53.144;6.244;2023-04-06T12:49:08;13.30;96.70
51733;DHT22;39139;53.144;6.244;2023-04-06T12:51:34;13.20;96.70
51733;DHT22;39139;53.144;6.244;2023-04-06T12:53:59;13.30;97.50
51733;DHT22;39139;53.144;6.244;2023-04-06T12:56:25;13.30;96.80
51733;DHT22;39139;53.144;6.244;2023-04-06T12:58:51;13.30;96.50
51733;DHT22;39139;53.144;6.244;2023-04-06T13:01:17;13.10;95.40
51733;DHT22;39139;53.144;6.244;2023-04-06T13:03:43;13.40;96.00
51733;DHT22;39139;53.144;6.244;2023-04-06T13:06:09;13.50;95.50
51733;DHT22;39139;53.144;6.244;2023-04-06T13:08:36;13.60;96.10
51733;DHT22;39139;53.144;6.244;2023-04-06T13:11:02;13.70;96.10
51733;DHT22;39139;53.144;6.244;2023-04-06T13:13:29;13.70;96.20
51733;DHT22;39139;53.144;6.244;2023-04-06T13:16:02;13.50;96.90
51733;DHT22;39139;53.144;6.244;2023-04-06T13:18:29;13.40;97.10
51733;DHT22;39139;53.144;6.244;2023-04-06T13:20:56;13.30;97.10
51733;DHT22;39139;53.144;6.244;2023-04-06T13:23:22;13.30;96.90
51733;DHT22;39139;53.144;6.244;2023-04-06T13:25:56;13.10;97.00
51733;DHT22;39139;53.144;6.244;2023-04-06T13:28:21;13.10;96.90
51733;DHT22;39139;53.144;6.244;2023-04-06T13:30:48;13.20;96.90
51733;DHT22;39139;53.144;6.244;2023-04-06T13:33:14;12.70;97.30
51733;DHT22;39139;53.144;6.244;2023-04-06T13:35:39;13.10;98.00
51733;DHT22;39139;53.144;6.244;2023-04-06T13:38:05;13.10;98.10
51733;DHT22;39139;53.144;6.244;2023-04-06T13:40:31;13.00;98.50
51733;DHT22;39139;53.144;6.244;2023-04-06T13:42:56;13.00;98.30
51733;DHT22;39139;53.144;6.244;2023-04-06T13:45:22;13.10;97.50
51733;DHT22;39139;53.144;6.244;2023-04-06T13:47:47;12.90;98.50
51733;DHT22;39139;53.144;6.244;2023-04-06T13:50:16;12.80;98.50
51733;DHT22;39139;53.144;6.244;2023-04-06T13:52:41;12.70;99.00
51733;DHT22;39139;53.144;6.244;2023-04-06T13:55:07;12.70;99.70
51733;DHT22;39139;53.144;6.244;2023-04-06T13:57:33;12.60;99.90
51733;DHT22;39139;53.144;6.244;2023-04-06T13:59:58;12.40;99.90
51733;DHT22;39139;53.144;6.244;2023-04-06T14:02:24;12.30;99.90
51733;DHT22;39139;53.144;6.244;2023-04-06T14:04:53;12.30;99.90
51733;DHT22;39139;53.144;6.244;2023-04-06T14:07:20;12.20;99.90
51733;DHT22;39139;53.144;6.244;2023-04-06T14:09:46;12.10;99.90
51733;DHT22;39139;53.144;6.244;2023-04-06T14:12:11;12.00;99.90
51733;DHT22;39139;53.144;6.244;2023-04-06T14:14:37;11.70;99.90
51733;DHT22;39139;53.144;6.244;2023-04-06T14:17:02;11.60;99.90
51733;DHT22;39139;53.144;6.244;2023-04-06T14:19:28;11.50;99.90
51733;DHT22;39139;53.144;6.244;2023-04-06T14:21:54;11.40;99.90
51733;DHT22;39139;53.144;6.244;2023-04-06T14:24:21;11.20;99.90
51733;DHT22;39139;53.144;6.244;2023-04-06T14:26:47;11.10;99.90
51733;DHT22;39139;53.144;6.244;2023-04-06T14:29:13;11.10;99.90
51733;DHT22;39139;53.144;6.244;2023-04-06T14:31:41;11.00;99.90
51733;DHT22;39139;53.144;6.244;2023-04-06T14:34:06;11.00;99.90
51733;DHT22;39139;53.144;6.244;2023-04-06T14:36:33;10.90;99.90
51733;DHT22;39139;53.144;6.244;2023-04-06T14:39:07;10.80;99.90
51733;DHT22;39139;53.144;6.244;2023-04-06T14:41:33;10.70;99.90
51733;DHT22;39139;53.144;6.244;2023-04-06T14:44:00;10.50;99.90
51733;DHT22;39139;53.144;6.244;2023-04-06T14:46:26;10.50;99.90
51733;DHT22;39139;53.144;6.244;2023-04-06T14:48:54;10.40;99.90
51733;DHT22;39139;53.144;6.244;2023-04-06T14:51:20;10.50;99.90
51733;DHT22;39139;53.144;6.244;2023-04-06T14:53:45;10.10;99.90
51733;DHT22;39139;53.144;6.244;2023-04-06T14:56:11;10.10;99.90
51733;DHT22;39139;53.144;6.244;2023-04-06T14:58:37;10.00;99.90
51733;DHT22;39139;53.144;6.244;2023-04-06T15:01:02;10.00;99.90
51733;DHT22;39139;53.144;6.244;2023-04-06T15:03:29;9.90;99.90
51733;DHT22;39139;53.144;6.244;2023-04-06T15:05:55;9.80;99.90
51733;DHT22;39139;53.144;6.244;2023-04-06T15:08:22;9.80;99.90
51733;DHT22;39139;53.144;6.244;2023-04-06T15:10:49;9.80;99.90
51733;DHT22;39139;53.144;6.244;2023-04-06T15:13:14;9.80;99.90
51733;DHT22;39139;53.144;6.244;2023-04-06T15:15:41;9.90;99.90
51733;DHT22;39139;53.144;6.244;2023-04-06T15:18:07;9.90;99.90
51733;DHT22;39139;53.144;6.244;2023-04-06T15:20:33;9.80;99.90
51733;DHT22;39139;53.144;6.244;2023-04-06T15:22:58;9.80;99.90
51733;DHT22;39139;53.144;6.244;2023-04-06T15:25:24;9.70;99.90
51733;DHT22;39139;53.144;6.244;2023-04-06T15:27:50;9.70;99.90
51733;DHT22;39139;53.144;6.244;2023-04-06T15:30:15;9.70;99.90
51733;DHT22;39139;53.144;6.244;2023-04-06T15:33:00;9.60;99.90
51733;DHT22;39139;53.144;6.244;2023-04-06T15:35:26;9.60;99.90
51733;DHT22;39139;53.144;6.244;2023-04-06T15:37:53;9.50;99.90
51733;DHT22;39139;53.144;6.244;2023-04-06T15:40:18;9.40;99.90
51733;DHT22;39139;53.144;6.244;2023-04-06T15:42:44;9.40;99.90